createdAt,value
2024-03-05T00:00:12.059Z,101372.19
2024-03-05T00:02:42.861Z,101361.19
2024-03-05T00:05:10.750Z,101370.47
2024-03-05T00:07:37.390Z,101367.94
2024-03-05T00:10:04.507Z,101367.09
2024-03-05T00:12:31.969Z,101367.91
2024-03-05T00:14:58.402Z,101373.81
2024-03-05T00:17:24.955Z,101373.81
2024-03-05T00:19:52.083Z,101377.19
2024-03-05T00:22:19.426Z,101370.44
2024-03-05T00:24:46.127Z,101362.81
2024-03-05T00:27:12.935Z,101363.66
2024-03-05T00:29:39.388Z,101367.84
2024-03-05T00:32:06.281Z,101372.91
2024-03-05T00:34:32.796Z,101375.44
2024-03-05T00:36:59.305Z,101369.53
2024-03-05T00:39:25.811Z,101376.25
2024-03-05T00:41:52.278Z,101371.19
2024-03-05T00:44:18.704Z,101372.88
2024-03-05T00:46:45.234Z,101371.19
2024-03-05T00:49:13.878Z,101371.16
2024-03-05T00:51:41.430Z,101373.69
2024-03-05T00:54:07.912Z,101373.69
2024-03-05T00:56:37.086Z,101377.88
2024-03-05T00:59:04.257Z,101380.41
2024-03-05T01:01:31.202Z,101376.19
2024-03-05T01:03:59.257Z,101377.84
2024-03-05T01:06:25.687Z,101377.00
2024-03-05T01:08:52.213Z,101383.75
2024-03-05T01:11:18.884Z,101377.00
2024-03-05T01:13:45.464Z,101376.13
2024-03-05T01:16:12.077Z,101388.78
2024-03-05T01:18:38.818Z,101378.66
2024-03-05T01:21:07.395Z,101376.91
2024-03-05T01:23:34.540Z,101378.63
2024-03-05T01:26:01.377Z,101372.72
2024-03-05T01:28:31.033Z,101372.66
2024-03-05T01:30:59.946Z,101373.53
2024-03-05T01:33:26.669Z,101372.66
2024-03-05T01:35:53.533Z,101371.78
2024-03-05T01:38:22.274Z,101365.88
2024-03-05T01:40:49.323Z,101372.59
2024-03-05T01:43:16.392Z,101365.81
2024-03-05T01:45:44.006Z,101367.50
2024-03-05T01:48:12.910Z,101364.13
2024-03-05T01:50:39.781Z,101367.50
2024-03-05T01:53:12.014Z,101374.22
2024-03-05T01:55:40.249Z,101368.31
2024-03-05T01:58:10.194Z,101370.84
2024-03-05T02:00:37.809Z,101371.66
2024-03-05T02:03:06.173Z,101370.81
2024-03-05T02:05:34.032Z,101370.81
2024-03-05T02:08:03.205Z,101376.72
2024-03-05T02:10:32.673Z,101372.47
2024-03-05T02:12:59.174Z,101368.25
2024-03-05T02:15:25.771Z,101369.06
2024-03-05T02:17:52.284Z,101363.13
2024-03-05T02:20:18.760Z,101365.66
2024-03-05T02:22:47.455Z,101369.03
2024-03-05T02:25:16.789Z,101369.03
2024-03-05T02:27:45.391Z,101369.84
2024-03-05T02:30:13.756Z,101373.19
2024-03-05T02:32:42.450Z,101366.41
2024-03-05T02:35:10.476Z,101366.41
2024-03-05T02:37:41.112Z,101363.88
2024-03-05T02:40:15.669Z,101361.31
2024-03-05T02:42:43.760Z,101365.53
2024-03-05T02:45:12.299Z,101366.34
2024-03-05T02:47:43.395Z,101365.50
2024-03-05T02:50:10.985Z,101370.56
2024-03-05T02:52:41.115Z,101367.16
2024-03-05T02:55:11.258Z,101357.88
2024-03-05T02:57:42.634Z,101363.78
2024-03-05T03:00:10.572Z,101365.44
2024-03-05T03:02:38.039Z,101361.22
2024-03-05T03:05:06.771Z,101356.13
2024-03-05T03:07:34.035Z,101370.44
2024-03-05T03:10:00.829Z,101366.22
2024-03-05T03:12:27.391Z,101363.72
2024-03-05T03:14:54.056Z,101363.69
2024-03-05T03:17:20.469Z,101367.09
2024-03-05T03:22:18.206Z,101361.19
2024-03-05T03:24:44.642Z,101357.78
2024-03-05T03:27:12.260Z,101353.53
2024-03-05T03:29:41.610Z,101354.38
2024-03-05T03:32:11.197Z,101350.97
2024-03-05T03:34:41.239Z,101351.81
2024-03-05T03:37:10.937Z,101349.22
2024-03-05T03:39:37.434Z,101358.50
2024-03-05T03:42:04.094Z,101354.28
2024-03-05T03:44:30.558Z,101348.38
2024-03-05T03:46:57.178Z,101347.53
2024-03-05T03:49:27.071Z,101345.84
2024-03-05T03:51:54.793Z,101339.97
2024-03-05T03:54:22.643Z,101345.00
2024-03-05T03:56:49.877Z,101345.00
2024-03-05T03:59:16.559Z,101339.94
2024-03-05T04:01:47.703Z,101341.59
2024-03-05T04:04:14.595Z,101347.53
2024-03-05T04:06:41.363Z,101345.84
2024-03-05T04:09:14.834Z,101341.63
2024-03-05T04:11:44.811Z,101343.38
2024-03-05T04:14:11.389Z,101347.63
2024-03-05T04:16:41.817Z,101351.91
2024-03-05T04:19:08.607Z,101353.63
2024-03-05T04:21:45.759Z,101347.75
2024-03-05T04:24:14.386Z,101348.63
2024-03-05T04:26:42.659Z,101348.66
2024-03-05T04:29:18.003Z,101357.19
2024-03-05T04:31:50.677Z,101352.13
2024-03-05T04:34:22.244Z,101358.94
2024-03-05T04:36:53.793Z,101361.50
2024-03-05T04:39:23.285Z,101358.16
2024-03-05T04:41:49.757Z,101352.25
2024-03-05T04:44:16.213Z,101360.72
2024-03-05T04:46:42.665Z,101356.53
2024-03-05T04:49:09.689Z,101355.69
2024-03-05T04:51:36.383Z,101359.94
2024-03-05T04:54:03.240Z,101350.69
2024-03-05T04:56:29.865Z,101354.94
2024-03-05T04:58:56.447Z,101357.50
2024-03-05T05:01:23.123Z,101361.72
2024-03-05T05:03:49.749Z,101359.22
2024-03-05T05:06:16.664Z,101364.31
2024-03-05T05:08:43.456Z,101362.63
2024-03-05T05:11:10.243Z,101366.88
2024-03-05T05:13:36.866Z,101363.53
2024-03-05T05:16:03.570Z,101362.66
2024-03-05T05:18:30.051Z,101363.53
2024-03-05T05:20:57.071Z,101364.38
2024-03-05T05:23:23.511Z,101368.63
2024-03-05T05:25:50.006Z,101363.56
2024-03-05T05:28:16.572Z,101361.03
2024-03-05T05:30:43.602Z,101359.38
2024-03-05T05:33:10.101Z,101350.94
2024-03-05T05:35:38.788Z,101359.41
2024-03-05T05:38:05.754Z,101361.13
2024-03-05T05:40:32.397Z,101356.88
2024-03-05T05:42:59.689Z,101358.59
2024-03-05T05:45:26.299Z,101363.66
2024-03-05T05:47:53.575Z,101358.59
2024-03-05T05:50:23.153Z,101367.94
2024-03-05T05:52:53.816Z,101370.47
2024-03-05T05:55:25.321Z,101382.28
2024-03-05T05:57:53.364Z,101395.84
2024-03-05T06:00:25.857Z,101391.59
2024-03-05T06:02:56.548Z,101393.28
2024-03-05T06:05:27.522Z,101387.34
2024-03-05T06:07:55.036Z,101383.13
2024-03-05T06:10:25.045Z,101388.22
2024-03-05T06:12:51.979Z,101399.22
2024-03-05T06:15:18.661Z,101405.19
2024-03-05T06:17:46.276Z,101406.91
2024-03-05T06:20:14.775Z,101398.41
2024-03-05T06:22:43.390Z,101401.84
2024-03-05T06:25:11.053Z,101399.31
2024-03-05T06:27:37.634Z,101404.38
2024-03-05T06:30:08.720Z,101407.75
2024-03-05T06:32:38.997Z,101420.50
2024-03-05T06:35:06.842Z,101413.72
2024-03-05T06:37:33.794Z,101413.72
2024-03-05T06:40:00.613Z,101420.53
2024-03-05T06:42:31.449Z,101413.75
2024-03-05T06:45:06.739Z,101412.91
2024-03-05T06:47:40.424Z,101416.31
2024-03-05T06:50:08.882Z,101419.72
2024-03-05T06:52:54.736Z,101423.97
2024-03-05T06:55:40.068Z,101428.19
2024-03-05T06:58:06.995Z,101418.88
2024-03-05T07:00:33.496Z,101419.75
2024-03-05T07:03:00.582Z,101412.13
2024-03-05T07:05:28.010Z,101418.91
2024-03-05T07:07:54.965Z,101414.66
2024-03-05T07:10:22.649Z,101417.22
2024-03-05T07:12:51.992Z,101419.75
2024-03-05T07:15:18.755Z,101418.06
2024-03-05T07:17:45.367Z,101429.94
2024-03-05T07:20:23.682Z,101423.16
2024-03-05T07:22:51.500Z,101429.06
2024-03-05T07:29:04.185Z,101430.81
2024-03-05T07:31:31.161Z,101433.34
2024-03-05T07:33:57.726Z,101439.25
2024-03-05T07:36:24.302Z,101426.56
2024-03-05T07:38:50.974Z,101427.38
2024-03-05T07:41:29.732Z,101424.84
2024-03-05T07:44:02.079Z,101422.28
2024-03-05T07:47:43.466Z,101429.94
2024-03-05T07:50:13.504Z,101428.19
2024-03-05T07:52:41.021Z,101429.88
2024-03-05T07:55:10.910Z,101429.03
2024-03-05T07:57:40.569Z,101428.19
2024-03-05T08:00:14.849Z,101432.41
2024-03-05T08:02:48.555Z,101423.88
2024-03-05T08:05:18.644Z,101426.41
2024-03-05T08:07:46.654Z,101427.22
2024-03-05T08:10:14.028Z,101429.72
2024-03-05T08:12:44.942Z,101430.53
2024-03-05T08:15:13.604Z,101427.94
2024-03-05T08:17:41.874Z,101430.47
2024-03-05T08:20:09.125Z,101418.50
2024-03-05T08:22:35.922Z,101431.22
2024-03-05T08:25:10.471Z,101433.75
2024-03-05T08:27:40.342Z,101440.47
2024-03-05T08:30:10.805Z,101436.22
2024-03-05T08:32:40.685Z,101442.13
2024-03-05T08:35:11.075Z,101446.31
2024-03-05T08:37:37.897Z,101436.09
2024-03-05T08:40:05.667Z,101433.53
2024-03-05T08:42:33.070Z,101444.56
2024-03-05T08:44:59.697Z,101451.38
2024-03-05T08:47:26.310Z,101449.63
2024-03-05T08:49:53.431Z,101461.56
2024-03-05T08:52:21.353Z,101459.88
2024-03-05T08:54:48.066Z,101463.28
2024-03-05T08:57:14.632Z,101468.41
2024-03-05T08:59:41.209Z,101471.84
2024-03-05T09:02:07.793Z,101472.69
2024-03-05T09:04:34.390Z,101472.69
2024-03-05T09:07:02.702Z,101478.66
2024-03-05T09:09:32.156Z,101475.22
2024-03-05T09:12:01.720Z,101471.81
2024-03-05T09:14:28.353Z,101469.25
2024-03-05T09:16:54.947Z,101474.34
2024-03-05T09:19:25.107Z,101469.22
2024-03-05T09:21:51.752Z,101464.13
2024-03-05T09:24:20.495Z,101464.97
2024-03-05T09:26:48.626Z,101466.66
2024-03-05T09:29:16.818Z,101458.97
2024-03-05T09:31:44.248Z,101455.56
2024-03-05T09:34:11.022Z,101461.47
2024-03-05T09:36:38.228Z,101452.13
2024-03-05T09:42:45.738Z,101452.03
2024-03-05T09:45:18.716Z,101456.25
2024-03-05T09:47:48.962Z,101451.97
2024-03-05T09:50:17.932Z,101461.28
2024-03-05T09:52:47.497Z,101468.00
2024-03-05T09:55:15.382Z,101473.91
2024-03-05T09:57:42.028Z,101474.69
2024-03-05T10:00:11.658Z,101476.31
2024-03-05T10:02:39.632Z,101471.13
2024-03-05T10:05:10.693Z,101479.56
2024-03-05T10:07:37.724Z,101480.28
2024-03-05T10:10:05.255Z,101480.22
2024-03-05T10:12:31.877Z,101484.44
2024-03-05T10:15:22.637Z,101491.25
2024-03-05T10:17:51.886Z,101488.66
2024-03-05T10:20:35.535Z,101490.31
2024-03-05T10:23:05.177Z,101496.22
2024-03-05T10:25:37.062Z,101488.47
2024-03-05T10:28:04.956Z,101490.13
2024-03-05T10:30:44.047Z,101493.47
2024-03-05T10:33:11.485Z,101490.03
2024-03-05T10:35:39.494Z,101489.13
2024-03-05T10:38:10.145Z,101496.75
2024-03-05T10:40:37.734Z,101493.31
2024-03-05T10:43:06.576Z,101504.31
2024-03-05T10:45:42.351Z,101500.88
2024-03-05T10:48:11.295Z,101498.28
2024-03-05T10:50:40.971Z,101496.56
2024-03-05T10:53:11.092Z,101492.31
2024-03-05T10:55:39.115Z,101491.44
2024-03-05T10:58:12.338Z,101493.94
2024-03-05T11:00:40.349Z,101494.75
2024-03-05T11:03:11.245Z,101496.41
2024-03-05T11:05:43.806Z,101505.72
2024-03-05T11:08:13.421Z,101496.31
2024-03-05T11:10:43.289Z,101503.91
2024-03-05T11:13:12.997Z,101498.75
2024-03-05T11:15:40.365Z,101495.34
2024-03-05T11:18:29.884Z,101504.78
2024-03-05T11:20:56.575Z,101505.69
2024-03-05T11:23:27.886Z,101504.00
2024-03-05T11:26:02.028Z,101498.06
2024-03-05T11:28:28.568Z,101500.59
2024-03-05T11:31:09.882Z,101509.13
2024-03-05T11:33:36.442Z,101504.78
2024-03-05T11:36:14.105Z,101496.22
2024-03-05T11:38:56.677Z,101496.16
2024-03-05T11:41:27.076Z,101500.41
2024-03-05T11:43:54.058Z,101508.97
2024-03-05T11:46:40.369Z,101500.50
2024-03-05T11:49:08.096Z,101497.91
2024-03-05T11:51:41.614Z,101509.88
2024-03-05T11:54:09.819Z,101506.50
2024-03-05T11:56:37.731Z,101516.81
2024-03-05T11:59:04.626Z,101515.16
2024-03-05T12:01:31.522Z,101508.38
2024-03-05T12:04:01.877Z,101514.34
2024-03-05T12:06:28.531Z,101507.50
2024-03-05T12:08:58.097Z,101509.31
2024-03-05T12:11:24.809Z,101517.81
2024-03-05T12:13:51.403Z,101521.19
2024-03-05T12:16:17.972Z,101511.78
2024-03-05T12:18:44.458Z,101509.19
2024-03-05T12:21:11.822Z,101514.28
2024-03-05T12:23:42.040Z,101518.50
2024-03-05T12:26:10.482Z,101519.34
2024-03-05T12:28:37.267Z,101522.78
2024-03-05T12:31:04.308Z,101523.63
2024-03-05T12:33:31.575Z,101519.31
2024-03-05T12:35:59.448Z,101523.53
2024-03-05T12:38:26.163Z,101532.00
2024-03-05T12:41:02.167Z,101524.31
2024-03-05T12:43:30.160Z,101523.47
2024-03-05T12:46:03.891Z,101521.69
2024-03-05T12:48:33.794Z,101520.00
2024-03-05T12:51:01.049Z,101526.81
2024-03-05T12:53:27.716Z,101525.16
2024-03-05T12:56:02.593Z,101527.72
2024-03-05T12:58:41.379Z,101522.63
2024-03-05T13:01:08.438Z,101530.34
2024-03-05T13:03:35.233Z,101530.34
2024-03-05T13:06:02.023Z,101529.44
2024-03-05T13:08:28.882Z,101528.53
2024-03-05T13:10:56.829Z,101529.31
2024-03-05T13:13:23.576Z,101531.06
2024-03-05T13:15:50.451Z,101533.72
2024-03-05T13:18:17.438Z,101537.94
2024-03-05T13:20:44.128Z,101540.50
2024-03-05T13:23:10.656Z,101533.69
2024-03-05T13:25:37.154Z,101537.06
2024-03-05T13:28:04.929Z,101538.66
2024-03-05T13:30:31.720Z,101537.81
2024-03-05T13:33:02.695Z,101541.97
2024-03-05T13:35:31.789Z,101542.81
2024-03-05T13:37:59.015Z,101550.47
2024-03-05T13:40:25.739Z,101541.06
2024-03-05T13:42:52.279Z,101542.69
2024-03-05T13:45:19.595Z,101545.97
2024-03-05T13:47:46.960Z,101548.50
2024-03-05T13:50:15.106Z,101549.22
2024-03-05T13:52:46.352Z,101550.06
2024-03-05T13:55:14.988Z,101555.97
2024-03-05T13:57:41.704Z,101549.16
2024-03-05T14:00:10.464Z,101552.63
2024-03-05T14:02:37.001Z,101554.41
2024-03-05T14:05:04.572Z,101557.88
2024-03-05T14:07:31.946Z,101559.66
2024-03-05T14:09:58.862Z,101558.03
2024-03-05T14:12:25.624Z,101554.66
2024-03-05T14:14:52.095Z,101561.59
2024-03-05T14:17:18.644Z,101554.66
2024-03-05T14:19:45.283Z,101550.47
2024-03-05T14:22:12.446Z,101550.44
2024-03-05T14:24:39.479Z,101554.69
2024-03-05T14:27:06.469Z,101568.38
2024-03-05T14:29:33.049Z,101555.59
2024-03-05T14:31:59.630Z,101558.22
2024-03-05T14:34:28.266Z,101560.72
2024-03-05T14:36:54.869Z,101569.28
2024-03-05T14:39:22.457Z,101565.84
2024-03-05T14:41:49.044Z,101569.31
2024-03-05T14:44:16.290Z,101559.16
2024-03-05T14:46:43.298Z,101567.78
2024-03-05T14:49:12.334Z,101567.75
2024-03-05T14:51:39.256Z,101561.69
2024-03-05T14:54:08.250Z,101573.66
2024-03-05T14:56:37.570Z,101568.47
2024-03-05T14:59:05.811Z,101575.31
2024-03-05T15:01:33.577Z,101575.34
2024-03-05T15:04:01.497Z,101576.25
2024-03-05T15:06:28.126Z,101577.09
2024-03-05T15:08:54.548Z,101579.63
2024-03-05T15:11:21.522Z,101587.31
2024-03-05T15:13:48.085Z,101584.72
2024-03-05T15:16:15.014Z,101591.47
2024-03-05T15:18:41.749Z,101588.03
2024-03-05T15:21:15.255Z,101593.97
2024-03-05T15:23:42.496Z,101597.38
2024-03-05T15:26:11.698Z,101592.22
2024-03-05T15:28:38.394Z,101585.38
2024-03-05T15:31:10.059Z,101588.81
2024-03-05T15:33:41.590Z,101600.72
2024-03-05T15:36:09.262Z,101605.84
2024-03-05T15:38:36.061Z,101596.47
2024-03-05T15:41:05.761Z,101599.03
2024-03-05T15:43:34.455Z,101599.84
2024-03-05T15:46:01.302Z,101603.25
2024-03-05T15:48:27.907Z,101599.88
2024-03-05T15:50:54.408Z,101594.72
2024-03-05T15:53:25.703Z,101604.09
2024-03-05T15:56:02.307Z,101599.84
2024-03-05T15:58:44.743Z,101593.03
2024-03-05T16:01:12.759Z,101606.66
2024-03-05T16:03:52.632Z,101610.03
2024-03-05T16:06:29.245Z,101615.19
2024-03-05T16:08:55.868Z,101610.97
2024-03-05T16:11:25.854Z,101616.09
2024-03-05T16:13:55.233Z,101615.25
2024-03-05T16:16:23.556Z,101616.09
2024-03-05T16:18:50.160Z,101617.84
2024-03-05T16:21:17.520Z,101618.72
2024-03-05T16:23:44.799Z,101611.09
2024-03-05T16:26:11.353Z,101609.44
2024-03-05T16:28:39.297Z,101620.56
2024-03-05T16:31:06.070Z,101616.34
2024-03-05T16:33:33.739Z,101616.34
2024-03-05T16:36:00.228Z,101626.63
2024-03-05T16:38:26.827Z,101622.38
2024-03-05T16:40:54.219Z,101635.19
2024-03-05T16:43:20.797Z,101637.78
2024-03-05T16:45:47.962Z,101636.94
2024-03-05T16:48:14.560Z,101637.84
2024-03-05T16:50:41.243Z,101635.28
2024-03-05T16:53:09.423Z,101639.56
2024-03-05T16:55:36.535Z,101641.31
2024-03-05T16:58:05.428Z,101644.75
2024-03-05T17:00:47.782Z,101643.06
2024-03-05T17:03:20.212Z,101641.38
2024-03-05T17:05:53.877Z,101648.19
2024-03-05T17:08:21.386Z,101649.06
2024-03-05T17:10:49.255Z,101649.13
2024-03-05T17:13:20.420Z,101650.84
2024-03-05T17:15:52.756Z,101650.00
2024-03-05T17:18:20.272Z,101655.13
2024-03-05T17:20:46.914Z,101658.56
2024-03-05T17:23:21.318Z,101661.13
2024-03-05T17:25:51.414Z,101657.72
2024-03-05T17:28:18.410Z,101660.28
2024-03-05T17:30:45.026Z,101662.88
2024-03-05T17:33:14.992Z,101666.28
2024-03-05T17:35:42.452Z,101670.56
2024-03-05T17:38:11.191Z,101669.75
2024-03-05T17:40:38.129Z,101685.94
2024-03-05T17:43:05.149Z,101685.97
2024-03-05T17:45:32.973Z,101679.16
2024-03-05T17:48:06.793Z,101683.44
2024-03-05T17:50:37.312Z,101679.19
2024-03-05T17:53:06.597Z,101688.59
2024-03-05T17:55:37.268Z,101692.88
2024-03-05T17:58:05.513Z,101699.75
2024-03-05T18:00:42.726Z,101695.50
2024-03-05T18:03:11.814Z,101704.00
2024-03-05T18:05:38.885Z,101704.84
2024-03-05T18:08:05.838Z,101712.53
2024-03-05T18:10:35.630Z,101711.72
2024-03-05T18:13:03.443Z,101706.59
2024-03-05T18:15:31.462Z,101717.66
2024-03-05T18:17:58.399Z,101718.56
2024-03-05T18:20:24.958Z,101713.44
2024-03-05T18:22:51.506Z,101717.69
2024-03-05T18:25:18.658Z,101718.59
2024-03-05T18:27:54.456Z,101712.59
2024-03-05T18:30:34.085Z,101724.53
2024-03-05T18:33:01.553Z,101718.56
2024-03-05T18:35:29.242Z,101720.31
2024-03-05T18:37:55.772Z,101724.63
2024-03-05T18:40:23.136Z,101726.28
2024-03-05T18:42:51.564Z,101727.16
2024-03-05T18:45:21.086Z,101721.22
2024-03-05T18:47:59.100Z,101722.06
2024-03-05T18:50:30.439Z,101724.66
2024-03-05T18:53:02.479Z,101729.78
2024-03-05T18:55:31.409Z,101732.34
2024-03-05T18:57:58.138Z,101737.47
2024-03-05T19:00:24.961Z,101733.22
2024-03-05T19:02:54.570Z,101733.22
2024-03-05T19:05:23.053Z,101740.91
2024-03-05T19:07:50.864Z,101729.88
2024-03-05T19:10:19.069Z,101736.69
2024-03-05T19:12:46.440Z,101729.03
2024-03-05T19:15:14.110Z,101735.84
2024-03-05T19:17:42.050Z,101740.13
2024-03-05T19:20:11.097Z,101741.81
2024-03-05T19:22:39.655Z,101741.81
2024-03-05T19:25:11.589Z,101740.13
2024-03-05T19:27:39.291Z,101744.38
2024-03-05T19:30:11.447Z,101736.72
2024-03-05T19:32:41.567Z,101742.69
2024-03-05T19:35:12.565Z,101740.16
2024-03-05T19:37:43.889Z,101746.13
2024-03-05T19:40:17.415Z,101744.41
2024-03-05T19:42:45.448Z,101744.41
2024-03-05T19:45:12.853Z,101743.59
2024-03-05T19:47:39.481Z,101743.59
2024-03-05T19:50:06.945Z,101752.94
2024-03-05T19:52:34.897Z,101751.25
2024-03-05T19:55:01.510Z,101751.25
2024-03-05T19:57:28.314Z,101756.34
2024-03-05T20:00:01.192Z,101752.97
2024-03-05T20:02:29.272Z,101755.53
2024-03-05T20:04:55.871Z,101747.88
2024-03-05T20:07:25.412Z,101751.28
2024-03-05T20:09:51.852Z,101753.81
2024-03-05T20:12:18.783Z,101763.22
2024-03-05T20:14:45.572Z,101758.94
2024-03-05T20:17:12.326Z,101765.78
2024-03-05T20:19:40.367Z,101763.22
2024-03-05T20:22:09.056Z,101766.63
2024-03-05T20:24:36.063Z,101772.56
2024-03-05T20:27:03.688Z,101770.88
2024-03-05T20:29:33.739Z,101770.03
2024-03-05T20:32:01.800Z,101775.13
2024-03-05T20:34:28.724Z,101776.00
2024-03-05T20:36:55.653Z,101777.69
2024-03-05T20:39:22.333Z,101775.16
2024-03-05T20:41:48.915Z,101776.88
2024-03-05T20:44:15.974Z,101778.56
2024-03-05T20:46:43.198Z,101775.19
2024-03-05T20:49:14.744Z,101782.03
2024-03-05T20:51:41.203Z,101783.69
2024-03-05T20:54:07.713Z,101777.75
2024-03-05T20:56:34.228Z,101792.22
2024-03-05T20:59:01.107Z,101791.38
2024-03-05T21:01:27.846Z,101791.38
2024-03-05T21:03:54.962Z,101788.81
2024-03-05T21:06:23.000Z,101791.38
2024-03-05T21:08:49.603Z,101793.13
2024-03-05T21:11:16.459Z,101805.00
2024-03-05T21:13:43.341Z,101805.88
2024-03-05T21:16:11.190Z,101807.56
2024-03-05T21:18:38.145Z,101807.56
2024-03-05T21:21:06.060Z,101805.88
2024-03-05T21:23:35.039Z,101814.38
2024-03-05T21:26:13.926Z,101816.94
2024-03-05T21:28:51.532Z,101812.66
2024-03-05T21:31:18.905Z,101814.38
2024-03-05T21:33:45.559Z,101816.09
2024-03-05T21:36:12.223Z,101807.56
2024-03-05T21:38:38.692Z,101819.50
2024-03-05T21:41:09.919Z,101816.94
2024-03-05T21:43:36.672Z,101812.66
2024-03-05T21:46:05.136Z,101813.53
2024-03-05T21:48:31.798Z,101813.53
2024-03-05T21:51:06.291Z,101810.97
2024-03-05T21:53:36.982Z,101817.75
2024-03-05T21:56:03.896Z,101816.91
2024-03-05T21:58:30.473Z,101819.47
2024-03-05T22:00:57.008Z,101812.66
2024-03-05T22:03:23.614Z,101821.19
2024-03-05T22:05:50.117Z,101820.34
2024-03-05T22:08:16.745Z,101817.78
2024-03-05T22:10:43.371Z,101816.09
2024-03-05T22:13:09.965Z,101827.16
2024-03-05T22:15:36.433Z,101835.66
2024-03-05T22:18:03.020Z,101833.97
2024-03-05T22:20:29.587Z,101821.22
2024-03-05T22:22:56.123Z,101829.72
2024-03-05T22:25:22.635Z,101831.41
2024-03-05T22:27:49.185Z,101827.97
2024-03-05T22:30:15.825Z,101840.75
2024-03-05T22:32:42.239Z,101843.31
2024-03-05T22:35:11.368Z,101842.47
2024-03-05T22:37:41.450Z,101845.84
2024-03-05T22:40:09.764Z,101845.84
2024-03-05T22:42:36.294Z,101856.91
2024-03-05T22:45:04.064Z,101849.28
2024-03-05T22:47:30.711Z,101843.34
2024-03-05T22:49:58.065Z,101845.91
2024-03-05T22:52:24.736Z,101845.91
2024-03-05T22:54:51.339Z,101844.19
2024-03-05T22:57:17.952Z,101842.50
2024-03-05T22:59:44.508Z,101845.91
2024-03-05T23:02:12.143Z,101853.56
2024-03-05T23:04:39.078Z,101842.53
2024-03-05T23:07:06.908Z,101851.84
2024-03-05T23:09:35.627Z,101852.72
2024-03-05T23:12:02.188Z,101859.50
2024-03-05T23:14:28.786Z,101859.50
2024-03-05T23:16:55.272Z,101862.06
2024-03-05T23:19:21.885Z,101858.69
2024-03-05T23:21:48.411Z,101861.22
2024-03-05T23:24:14.873Z,101861.22
2024-03-05T23:26:41.317Z,101863.75
2024-03-05T23:29:07.867Z,101861.22
2024-03-05T23:31:37.234Z,101860.38
2024-03-05T23:34:04.054Z,101862.94
2024-03-05T23:36:30.495Z,101859.50
2024-03-05T23:38:57.001Z,101865.47
2024-03-05T23:41:29.245Z,101870.56
2024-03-05T23:43:58.968Z,101873.97
2024-03-05T23:46:25.625Z,101871.44
2024-03-05T23:48:52.068Z,101877.38
2024-03-05T23:51:18.714Z,101873.13
2024-03-05T23:53:45.364Z,101868.88
2024-03-05T23:56:12.205Z,101878.22
2024-03-05T23:58:40.123Z,101890.97
